sensor_id;sensor_type;location;lat;lon;timestamp;pressure;altitude;pressure_sealevel;temperature;humidity
65758;BME280;52495;52.208;5.158;2024-02-14T00:01:20;101094.25;;;8.24;100.00
65758;BME280;52495;52.208;5.158;2024-02-14T00:03:47;101079.66;;;8.24;100.00
65758;BME280;52495;52.208;5.158;2024-02-14T00:06:14;101083.09;;;8.29;100.00
65758;BME280;52495;52.208;5.158;2024-02-14T00:08:40;101075.38;;;8.29;100.00
65758;BME280;52495;52.208;5.158;2024-02-14T00:11:07;101077.94;;;8.29;100.00
65758;BME280;52495;52.208;5.158;2024-02-14T00:13:34;101087.38;;;8.30;100.00
65758;BME280;52495;52.208;5.158;2024-02-14T00:16:03;101078.81;;;8.31;100.00
65758;BME280;52495;52.208;5.158;2024-02-14T00:18:32;101065.06;;;8.32;100.00
65758;BME280;52495;52.208;5.158;2024-02-14T00:20:58;101071.06;;;8.34;100.00
65758;BME280;52495;52.208;5.158;2024-02-14T00:23:26;101079.66;;;8.37;100.00
65758;BME280;52495;52.208;5.158;2024-02-14T00:25:52;101063.34;;;8.34;100.00
65758;BME280;52495;52.208;5.158;2024-02-14T00:28:19;101056.47;;;8.41;100.00
65758;BME280;52495;52.208;5.158;2024-02-14T00:30:49;101057.31;;;8.39;100.00
65758;BME280;52495;52.208;5.158;2024-02-14T00:33:17;101057.31;;;8.43;100.00
65758;BME280;52495;52.208;5.158;2024-02-14T00:35:44;101057.28;;;8.46;100.00
65758;BME280;52495;52.208;5.158;2024-02-14T00:38:11;101055.59;;;8.48;100.00
65758;BME280;52495;52.208;5.158;2024-02-14T00:40:37;101046.16;;;8.50;100.00
65758;BME280;52495;52.208;5.158;2024-02-14T00:43:04;101051.25;;;8.55;100.00
65758;BME280;52495;52.208;5.158;2024-02-14T00:45:31;101048.69;;;8.57;100.00
65758;BME280;52495;52.208;5.158;2024-02-14T00:47:58;101040.97;;;8.57;100.00
65758;BME280;52495;52.208;5.158;2024-02-14T00:50:26;101038.38;;;8.58;100.00
65758;BME280;52495;52.208;5.158;2024-02-14T00:52:53;101047.81;;;8.61;100.00
65758;BME280;52495;52.208;5.158;2024-02-14T00:55:19;101046.09;;;8.61;100.00
65758;BME280;52495;52.208;5.158;2024-02-14T00:57:46;101034.91;;;8.64;100.00
65758;BME280;52495;52.208;5.158;2024-02-14T01:00:13;101037.47;;;8.67;100.00
65758;BME280;52495;52.208;5.158;2024-02-14T01:02:42;101042.59;;;8.72;100.00
65758;BME280;52495;52.208;5.158;2024-02-14T01:05:09;101037.44;;;8.73;100.00
65758;BME280;52495;52.208;5.158;2024-02-14T01:07:37;101043.41;;;8.77;100.00
65758;BME280;52495;52.208;5.158;2024-02-14T01:10:04;101033.13;;;8.78;100.00
65758;BME280;52495;52.208;5.158;2024-02-14T01:12:31;101033.94;;;8.80;100.00
65758;BME280;52495;52.208;5.158;2024-02-14T01:14:58;101039.97;;;8.81;100.00
65758;BME280;52495;52.208;5.158;2024-02-14T01:17:24;101039.94;;;8.86;100.00
65758;BME280;52495;52.208;5.158;2024-02-14T01:19:51;101035.63;;;8.88;100.00
65758;BME280;52495;52.208;5.158;2024-02-14T01:22:18;101040.75;;;8.89;100.00
65758;BME280;52495;52.208;5.158;2024-02-14T01:24:46;101037.31;;;8.90;100.00
65758;BME280;52495;52.208;5.158;2024-02-14T01:27:13;101036.44;;;8.91;100.00
65758;BME280;52495;52.208;5.158;2024-02-14T01:29:39;101034.72;;;8.93;100.00
65758;BME280;52495;52.208;5.158;2024-02-14T01:32:06;101037.31;;;8.95;100.00
65758;BME280;52495;52.208;5.158;2024-02-14T01:34:33;101033.00;;;8.94;100.00
65758;BME280;52495;52.208;5.158;2024-02-14T01:36:59;101035.56;;;8.95;100.00
65758;BME280;52495;52.208;5.158;2024-02-14T01:39:26;101038.16;;;8.95;100.00
65758;BME280;52495;52.208;5.158;2024-02-14T01:41:54;101031.25;;;8.99;100.00
65758;BME280;52495;52.208;5.158;2024-02-14T01:44:21;101032.97;;;8.99;100.00
65758;BME280;52495;52.208;5.158;2024-02-14T01:46:48;101029.53;;;9.00;100.00
65758;BME280;52495;52.208;5.158;2024-02-14T01:49:15;101048.38;;;9.03;100.00
65758;BME280;52495;52.208;5.158;2024-02-14T01:51:43;101037.25;;;9.01;100.00
65758;BME280;52495;52.208;5.158;2024-02-14T01:54:12;101038.09;;;9.05;100.00
65758;BME280;52495;52.208;5.158;2024-02-14T01:56:39;101040.63;;;9.08;100.00
65758;BME280;52495;52.208;5.158;2024-02-14T01:59:09;101031.19;;;9.07;100.00
65758;BME280;52495;52.208;5.158;2024-02-14T02:01:36;101034.63;;;9.07;100.00
65758;BME280;52495;52.208;5.158;2024-02-14T02:04:04;101042.34;;;9.10;100.00
65758;BME280;52495;52.208;5.158;2024-02-14T02:06:31;101045.75;;;9.13;100.00
65758;BME280;52495;52.208;5.158;2024-02-14T02:08:58;101039.72;;;9.12;100.00
65758;BME280;52495;52.208;5.158;2024-02-14T02:11:25;101047.44;;;9.15;100.00
65758;BME280;52495;52.208;5.158;2024-02-14T02:13:52;101045.72;;;9.16;100.00
65758;BME280;52495;52.208;5.158;2024-02-14T02:16:22;101049.16;;;9.16;100.00
65758;BME280;52495;52.208;5.158;2024-02-14T02:18:48;101050.00;;;9.18;100.00
65758;BME280;52495;52.208;5.158;2024-02-14T02:21:15;101040.56;;;9.17;100.00
65758;BME280;52495;52.208;5.158;2024-02-14T02:23:47;101046.56;;;9.19;100.00
65758;BME280;52495;52.208;5.158;2024-02-14T02:26:14;101049.97;;;9.21;100.00
65758;BME280;52495;52.208;5.158;2024-02-14T02:28:40;101055.97;;;9.22;100.00
65758;BME280;52495;52.208;5.158;2024-02-14T02:31:07;101051.69;;;9.21;100.00
65758;BME280;52495;52.208;5.158;2024-02-14T02:33:35;101053.41;;;9.20;100.00
65758;BME280;52495;52.208;5.158;2024-02-14T02:36:03;101054.25;;;9.22;100.00
65758;BME280;52495;52.208;5.158;2024-02-14T02:38:29;101056.81;;;9.22;100.00
65758;BME280;52495;52.208;5.158;2024-02-14T02:40:58;101058.53;;;9.25;100.00
65758;BME280;52495;52.208;5.158;2024-02-14T02:43:26;101054.22;;;9.25;100.00
65758;BME280;52495;52.208;5.158;2024-02-14T02:45:52;101055.09;;;9.26;100.00
65758;BME280;52495;52.208;5.158;2024-02-14T02:48:19;101055.09;;;9.26;100.00
65758;BME280;52495;52.208;5.158;2024-02-14T02:50:48;101062.78;;;9.27;100.00
65758;BME280;52495;52.208;5.158;2024-02-14T02:53:16;101058.53;;;9.25;100.00
65758;BME280;52495;52.208;5.158;2024-02-14T02:55:42;101065.41;;;9.26;100.00
65758;BME280;52495;52.208;5.158;2024-02-14T02:58:11;101053.34;;;9.28;100.00
65758;BME280;52495;52.208;5.158;2024-02-14T03:00:37;101058.50;;;9.30;100.00
65758;BME280;52495;52.208;5.158;2024-02-14T03:03:07;101060.22;;;9.29;100.00
65758;BME280;52495;52.208;5.158;2024-02-14T03:05:34;101064.53;;;9.27;100.00
65758;BME280;52495;52.208;5.158;2024-02-14T03:08:01;101072.22;;;9.29;100.00
65758;BME280;52495;52.208;5.158;2024-02-14T03:10:29;101068.78;;;9.30;100.00
65758;BME280;52495;52.208;5.158;2024-02-14T03:12:56;101063.63;;;9.31;100.00
65758;BME280;52495;52.208;5.158;2024-02-14T03:15:24;101058.47;;;9.31;100.00
65758;BME280;52495;52.208;5.158;2024-02-14T03:17:51;101071.34;;;9.33;100.00
65758;BME280;52495;52.208;5.158;2024-02-14T03:20:18;101061.03;;;9.31;100.00
65758;BME280;52495;52.208;5.158;2024-02-14T03:22:45;101067.91;;;9.34;100.00
65758;BME280;52495;52.208;5.158;2024-02-14T03:25:13;101073.03;;;9.35;100.00
65758;BME280;52495;52.208;5.158;2024-02-14T03:27:40;101081.63;;;9.37;100.00
65758;BME280;52495;52.208;5.158;2024-02-14T03:30:07;101079.06;;;9.36;100.00
65758;BME280;52495;52.208;5.158;2024-02-14T03:32:36;101077.31;;;9.38;100.00
65758;BME280;52495;52.208;5.158;2024-02-14T03:35:03;101079.91;;;9.38;100.00
65758;BME280;52495;52.208;5.158;2024-02-14T03:37:31;101070.41;;;9.40;100.00
65758;BME280;52495;52.208;5.158;2024-02-14T03:39:58;101079.84;;;9.43;100.00
65758;BME280;52495;52.208;5.158;2024-02-14T03:42:25;101080.69;;;9.43;100.00
65758;BME280;52495;52.208;5.158;2024-02-14T03:44:52;101084.13;;;9.45;100.00
65758;BME280;52495;52.208;5.158;2024-02-14T03:47:25;101082.41;;;9.46;100.00
65758;BME280;52495;52.208;5.158;2024-02-14T03:49:53;101087.53;;;9.47;100.00
65758;BME280;52495;52.208;5.158;2024-02-14T03:52:20;101087.53;;;9.47;100.00
65758;BME280;52495;52.208;5.158;2024-02-14T03:54:48;101088.41;;;9.48;100.00
65758;BME280;52495;52.208;5.158;2024-02-14T03:57:15;101087.50;;;9.52;100.00
65758;BME280;52495;52.208;5.158;2024-02-14T03:59:43;101094.38;;;9.53;100.00
65758;BME280;52495;52.208;5.158;2024-02-14T04:02:10;101089.22;;;9.54;100.00
65758;BME280;52495;52.208;5.158;2024-02-14T04:04:37;101095.19;;;9.56;100.00
65758;BME280;52495;52.208;5.158;2024-02-14T04:07:06;101096.91;;;9.59;100.00
65758;BME280;52495;52.208;5.158;2024-02-14T04:09:33;101096.88;;;9.62;100.00
65758;BME280;52495;52.208;5.158;2024-02-14T04:12:01;101099.44;;;9.64;100.00
65758;BME280;52495;52.208;5.158;2024-02-14T04:14:28;101099.44;;;9.64;100.00
65758;BME280;52495;52.208;5.158;2024-02-14T04:16:54;101101.09;;;9.66;100.00
65758;BME280;52495;52.208;5.158;2024-02-14T04:19:21;101104.53;;;9.68;100.00
65758;BME280;52495;52.208;5.158;2024-02-14T04:21:48;101110.56;;;9.67;100.00
65758;BME280;52495;52.208;5.158;2024-02-14T04:24:17;101103.66;;;9.71;100.00
65758;BME280;52495;52.208;5.158;2024-02-14T04:26:43;101114.81;;;9.73;100.00
65758;BME280;52495;52.208;5.158;2024-02-14T04:29:10;101126.81;;;9.76;100.00
65758;BME280;52495;52.208;5.158;2024-02-14T04:31:37;101116.47;;;9.77;100.00
65758;BME280;52495;52.208;5.158;2024-02-14T04:34:03;101115.63;;;9.80;100.00
65758;BME280;52495;52.208;5.158;2024-02-14T04:36:33;101116.50;;;9.79;100.00
65758;BME280;52495;52.208;5.158;2024-02-14T04:39:00;101125.06;;;9.79;100.00
65758;BME280;52495;52.208;5.158;2024-02-14T04:41:29;101119.03;;;9.80;100.00
65758;BME280;52495;52.208;5.158;2024-02-14T04:43:56;101121.63;;;9.82;100.00
65758;BME280;52495;52.208;5.158;2024-02-14T04:46:23;101125.88;;;9.84;100.00
65758;BME280;52495;52.208;5.158;2024-02-14T04:48:49;101117.28;;;9.84;100.00
65758;BME280;52495;52.208;5.158;2024-02-14T04:51:16;101118.19;;;9.81;100.00
65758;BME280;52495;52.208;5.158;2024-02-14T04:53:43;101125.88;;;9.84;100.00
65758;BME280;52495;52.208;5.158;2024-02-14T04:56:09;101128.47;;;9.84;100.00
65758;BME280;52495;52.208;5.158;2024-02-14T04:58:37;101137.03;;;9.85;100.00
65758;BME280;52495;52.208;5.158;2024-02-14T05:01:04;101131.88;;;9.85;100.00
65758;BME280;52495;52.208;5.158;2024-02-14T05:03:32;101137.00;;;9.88;100.00
65758;BME280;52495;52.208;5.158;2024-02-14T05:05:59;101143.84;;;9.91;100.00
65758;BME280;52495;52.208;5.158;2024-02-14T05:08:28;101140.44;;;9.90;100.00
65758;BME280;52495;52.208;5.158;2024-02-14T05:10:54;101143.84;;;9.91;100.00
65758;BME280;52495;52.208;5.158;2024-02-14T05:13:21;101141.31;;;9.89;100.00
65758;BME280;52495;52.208;5.158;2024-02-14T05:15:50;101143.00;;;9.92;100.00
65758;BME280;52495;52.208;5.158;2024-02-14T05:18:17;101147.28;;;9.93;100.00
65758;BME280;52495;52.208;5.158;2024-02-14T05:20:44;101150.72;;;9.92;100.00
65758;BME280;52495;52.208;5.158;2024-02-14T05:23:11;101152.44;;;9.93;100.00
65758;BME280;52495;52.208;5.158;2024-02-14T05:25:37;101150.72;;;9.92;100.00
65758;BME280;52495;52.208;5.158;2024-02-14T05:28:05;101155.88;;;9.95;100.00
65758;BME280;52495;52.208;5.158;2024-02-14T05:30:31;101152.44;;;9.94;100.00
65758;BME280;52495;52.208;5.158;2024-02-14T05:33:00;101158.44;;;9.95;100.00
65758;BME280;52495;52.208;5.158;2024-02-14T05:35:26;101154.13;;;9.97;100.00
65758;BME280;52495;52.208;5.158;2024-02-14T05:37:53;101166.16;;;9.98;100.00
65758;BME280;52495;52.208;5.158;2024-02-14T05:40:21;101155.84;;;9.98;100.00
65758;BME280;52495;52.208;5.158;2024-02-14T05:42:48;101164.44;;;9.97;100.00
65758;BME280;52495;52.208;5.158;2024-02-14T05:45:14;101160.97;;;9.99;100.00
65758;BME280;52495;52.208;5.158;2024-02-14T05:47:42;101165.25;;;10.00;100.00
65758;BME280;52495;52.208;5.158;2024-02-14T05:50:10;101161.81;;;10.01;100.00
65758;BME280;52495;52.208;5.158;2024-02-14T05:52:38;101166.09;;;10.06;100.00
65758;BME280;52495;52.208;5.158;2024-02-14T05:55:05;101168.66;;;10.06;100.00
65758;BME280;52495;52.208;5.158;2024-02-14T05:57:34;101173.78;;;10.09;100.00
65758;BME280;52495;52.208;5.158;2024-02-14T06:00:00;101170.34;;;10.10;100.00
65758;BME280;52495;52.208;5.158;2024-02-14T06:02:37;101172.06;;;10.09;100.00
65758;BME280;52495;52.208;5.158;2024-02-14T06:05:05;101168.63;;;10.09;100.00
65758;BME280;52495;52.208;5.158;2024-02-14T06:07:36;101173.78;;;10.12;100.00
65758;BME280;52495;52.208;5.158;2024-02-14T06:10:03;101181.50;;;10.12;100.00
65758;BME280;52495;52.208;5.158;2024-02-14T06:12:31;101178.09;;;10.10;100.00
65758;BME280;52495;52.208;5.158;2024-02-14T06:14:58;101181.50;;;10.12;100.00
65758;BME280;52495;52.208;5.158;2024-02-14T06:17:25;101192.69;;;10.11;100.00
65758;BME280;52495;52.208;5.158;2024-02-14T06:19:52;101190.13;;;10.11;100.00
65758;BME280;52495;52.208;5.158;2024-02-14T06:22:19;101196.13;;;10.13;100.00
65758;BME280;52495;52.208;5.158;2024-02-14T06:24:47;101201.28;;;10.13;100.00
65758;BME280;52495;52.208;5.158;2024-02-14T06:27:14;101196.97;;;10.13;100.00
65758;BME280;52495;52.208;5.158;2024-02-14T06:29:41;101204.72;;;10.15;100.00
65758;BME280;52495;52.208;5.158;2024-02-14T06:32:08;101203.84;;;10.16;100.00
65758;BME280;52495;52.208;5.158;2024-02-14T06:34:35;101205.53;;;10.17;100.00
65758;BME280;52495;52.208;5.158;2024-02-14T06:37:02;101208.94;;;10.19;100.00
65758;BME280;52495;52.208;5.158;2024-02-14T06:39:29;101207.22;;;10.18;100.00
65758;BME280;52495;52.208;5.158;2024-02-14T06:41:58;101211.53;;;10.21;100.00
65758;BME280;52495;52.208;5.158;2024-02-14T06:44:24;101214.13;;;10.21;100.00
65758;BME280;52495;52.208;5.158;2024-02-14T06:46:51;101215.84;;;10.18;100.00
65758;BME280;52495;52.208;5.158;2024-02-14T06:49:18;101223.56;;;10.20;100.00
65758;BME280;52495;52.208;5.158;2024-02-14T06:51:45;101220.97;;;10.20;100.00
65758;BME280;52495;52.208;5.158;2024-02-14T06:54:11;101224.44;;;10.21;100.00
65758;BME280;52495;52.208;5.158;2024-02-14T06:56:38;101223.56;;;10.20;100.00
65758;BME280;52495;52.208;5.158;2024-02-14T06:59:07;101222.72;;;10.18;100.00
65758;BME280;52495;52.208;5.158;2024-02-14T07:01:33;101220.97;;;10.22;100.00
65758;BME280;52495;52.208;5.158;2024-02-14T07:04:00;101225.31;;;10.20;100.00
65758;BME280;52495;52.208;5.158;2024-02-14T07:06:28;101223.56;;;10.20;100.00
65758;BME280;52495;52.208;5.158;2024-02-14T07:08:55;101230.47;;;10.20;100.00
65758;BME280;52495;52.208;5.158;2024-02-14T07:11:22;101237.31;;;10.22;100.00
65758;BME280;52495;52.208;5.158;2024-02-14T07:13:49;101237.31;;;10.22;100.00
65758;BME280;52495;52.208;5.158;2024-02-14T07:16:17;101235.59;;;10.23;100.00
65758;BME280;52495;52.208;5.158;2024-02-14T07:18:44;101239.03;;;10.23;100.00
65758;BME280;52495;52.208;5.158;2024-02-14T07:21:11;101239.00;;;10.25;100.00
65758;BME280;52495;52.208;5.158;2024-02-14T07:23:38;101240.72;;;10.24;100.00
65758;BME280;52495;52.208;5.158;2024-02-14T07:26:05;101253.63;;;10.24;100.00
65758;BME280;52495;52.208;5.158;2024-02-14T07:28:31;101246.75;;;10.23;100.00
65758;BME280;52495;52.208;5.158;2024-02-14T07:30:58;101247.63;;;10.24;100.00
65758;BME280;52495;52.208;5.158;2024-02-14T07:33:26;101251.03;;;10.26;100.00
65758;BME280;52495;52.208;5.158;2024-02-14T07:35:53;101239.00;;;10.25;100.00
65758;BME280;52495;52.208;5.158;2024-02-14T07:38:20;101252.78;;;10.25;100.00
65758;BME280;52495;52.208;5.158;2024-02-14T07:40:48;101240.72;;;10.27;100.00
65758;BME280;52495;52.208;5.158;2024-02-14T07:43:15;101239.84;;;10.28;100.00
65758;BME280;52495;52.208;5.158;2024-02-14T07:45:41;101250.16;;;10.31;100.00
65758;BME280;52495;52.208;5.158;2024-02-14T07:48:08;101251.84;;;10.32;100.00
65758;BME280;52495;52.208;5.158;2024-02-14T07:50:36;101249.25;;;10.34;100.00
65758;BME280;52495;52.208;5.158;2024-02-14T07:53:03;101252.69;;;10.33;100.00
65758;BME280;52495;52.208;5.158;2024-02-14T07:55:31;101249.25;;;10.34;100.00
65758;BME280;52495;52.208;5.158;2024-02-14T07:57:58;101257.84;;;10.36;100.00
65758;BME280;52495;52.208;5.158;2024-02-14T08:00:25;101265.56;;;10.36;100.00
65758;BME280;52495;52.208;5.158;2024-02-14T08:02:52;101261.25;;;10.37;100.00
65758;BME280;52495;52.208;5.158;2024-02-14T08:05:19;101262.13;;;10.39;100.00
65758;BME280;52495;52.208;5.158;2024-02-14T08:07:47;101264.72;;;10.40;100.00
65758;BME280;52495;52.208;5.158;2024-02-14T08:10:14;101270.75;;;10.39;100.00
65758;BME280;52495;52.208;5.158;2024-02-14T08:12:41;101265.53;;;10.42;100.00
65758;BME280;52495;52.208;5.158;2024-02-14T08:15:08;101272.41;;;10.43;100.00
65758;BME280;52495;52.208;5.158;2024-02-14T08:17:36;101265.53;;;10.44;100.00
65758;BME280;52495;52.208;5.158;2024-02-14T08:20:04;101271.56;;;10.43;100.00
65758;BME280;52495;52.208;5.158;2024-02-14T08:22:31;101277.56;;;10.43;100.00
65758;BME280;52495;52.208;5.158;2024-02-14T08:24:59;101274.13;;;10.44;100.00
65758;BME280;52495;52.208;5.158;2024-02-14T08:27:26;101281.88;;;10.44;100.00
65758;BME280;52495;52.208;5.158;2024-02-14T08:29:53;101277.56;;;10.45;100.00
65758;BME280;52495;52.208;5.158;2024-02-14T08:32:19;101283.59;;;10.44;100.00
65758;BME280;52495;52.208;5.158;2024-02-14T08:34:46;101272.38;;;10.46;100.00
65758;BME280;52495;52.208;5.158;2024-02-14T08:37:13;101271.50;;;10.47;100.00
65758;BME280;52495;52.208;5.158;2024-02-14T08:39:40;101275.81;;;10.48;100.00
65758;BME280;52495;52.208;5.158;2024-02-14T08:42:08;101286.94;;;10.52;100.00
65758;BME280;52495;52.208;5.158;2024-02-14T08:44:36;101278.34;;;10.53;100.00
65758;BME280;52495;52.208;5.158;2024-02-14T08:47:03;101282.59;;;10.57;100.00
65758;BME280;52495;52.208;5.158;2024-02-14T08:49:30;101286.06;;;10.58;100.00
65758;BME280;52495;52.208;5.158;2024-02-14T08:51:57;101289.47;;;10.60;100.00
65758;BME280;52495;52.208;5.158;2024-02-14T08:54:24;101284.28;;;10.61;100.00
65758;BME280;52495;52.208;5.158;2024-02-14T08:56:53;101288.59;;;10.61;100.00
65758;BME280;52495;52.208;5.158;2024-02-14T08:59:22;101293.75;;;10.62;100.00
65758;BME280;52495;52.208;5.158;2024-02-14T09:01:49;101288.59;;;10.62;100.00
65758;BME280;52495;52.208;5.158;2024-02-14T09:04:15;101283.41;;;10.61;100.00
65758;BME280;52495;52.208;5.158;2024-02-14T09:06:42;101296.31;;;10.64;100.00
65758;BME280;52495;52.208;5.158;2024-02-14T09:09:09;101301.50;;;10.62;100.00
65758;BME280;52495;52.208;5.158;2024-02-14T09:11:37;101297.19;;;10.65;100.00
65758;BME280;52495;52.208;5.158;2024-02-14T09:14:03;101306.63;;;10.66;100.00
65758;BME280;52495;52.208;5.158;2024-02-14T09:16:33;101308.34;;;10.65;100.00
65758;BME280;52495;52.208;5.158;2024-02-14T09:19:00;101295.44;;;10.67;100.00
65758;BME280;52495;52.208;5.158;2024-02-14T09:21:27;101302.28;;;10.69;100.00
65758;BME280;52495;52.208;5.158;2024-02-14T09:23:54;101308.31;;;10.68;100.00
65758;BME280;52495;52.208;5.158;2024-02-14T09:26:21;101305.69;;;10.73;100.00
65758;BME280;52495;52.208;5.158;2024-02-14T09:28:48;101310.00;;;10.72;100.00
65758;BME280;52495;52.208;5.158;2024-02-14T09:31:17;101313.47;;;10.70;100.00
65758;BME280;52495;52.208;5.158;2024-02-14T09:33:46;101313.47;;;10.71;100.00
65758;BME280;52495;52.208;5.158;2024-02-14T09:36:14;101317.75;;;10.72;100.00
65758;BME280;52495;52.208;5.158;2024-02-14T09:38:41;101311.69;;;10.75;100.00
65758;BME280;52495;52.208;5.158;2024-02-14T09:41:14;101306.50;;;10.76;100.00
65758;BME280;52495;52.208;5.158;2024-02-14T09:43:43;101306.47;;;10.80;100.00
65758;BME280;52495;52.208;5.158;2024-02-14T09:46:12;101314.19;;;10.83;100.00
65758;BME280;52495;52.208;5.158;2024-02-14T09:48:40;101316.78;;;10.83;100.00
65758;BME280;52495;52.208;5.158;2024-02-14T09:51:10;101319.38;;;10.83;100.00
65758;BME280;52495;52.208;5.158;2024-02-14T09:53:38;101311.66;;;10.81;100.00
65758;BME280;52495;52.208;5.158;2024-02-14T09:56:05;101315.09;;;10.80;100.00
65758;BME280;52495;52.208;5.158;2024-02-14T09:58:32;101320.25;;;10.83;100.00
65758;BME280;52495;52.208;5.158;2024-02-14T10:01:00;101327.94;;;10.86;100.00
65758;BME280;52495;52.208;5.158;2024-02-14T10:03:27;101325.34;;;10.88;100.00
65758;BME280;52495;52.208;5.158;2024-02-14T10:05:54;101323.63;;;10.85;100.00
65758;BME280;52495;52.208;5.158;2024-02-14T10:08:22;101321.06;;;10.87;100.00
65758;BME280;52495;52.208;5.158;2024-02-14T10:10:50;101321.03;;;10.90;100.00
65758;BME280;52495;52.208;5.158;2024-02-14T10:13:17;101317.56;;;10.89;100.00
65758;BME280;52495;52.208;5.158;2024-02-14T10:15:44;101329.63;;;10.90;100.00
65758;BME280;52495;52.208;5.158;2024-02-14T10:18:11;101331.34;;;10.93;100.00
65758;BME280;52495;52.208;5.158;2024-02-14T10:20:40;101326.09;;;10.98;100.00
65758;BME280;52495;52.208;5.158;2024-02-14T10:23:10;101333.84;;;10.96;100.00
65758;BME280;52495;52.208;5.158;2024-02-14T10:25:38;101335.56;;;10.97;100.00
65758;BME280;52495;52.208;5.158;2024-02-14T10:28:05;101332.94;;;11.02;100.00
65758;BME280;52495;52.208;5.158;2024-02-14T10:30:34;101332.94;;;11.03;100.00
65758;BME280;52495;52.208;5.158;2024-02-14T10:33:04;101332.06;;;11.03;100.00
65758;BME280;52495;52.208;5.158;2024-02-14T10:35:33;101334.59;;;11.06;100.00
65758;BME280;52495;52.208;5.158;2024-02-14T10:38:02;101337.19;;;11.06;100.00
65758;BME280;52495;52.208;5.158;2024-02-14T10:40:32;101345.81;;;11.06;100.00
65758;BME280;52495;52.208;5.158;2024-02-14T10:43:01;101342.38;;;11.06;100.00
65758;BME280;52495;52.208;5.158;2024-02-14T10:45:28;101338.91;;;11.07;100.00
65758;BME280;52495;52.208;5.158;2024-02-14T10:47:56;101338.03;;;11.08;100.00
65758;BME280;52495;52.208;5.158;2024-02-14T10:50:24;101337.13;;;11.11;100.00
65758;BME280;52495;52.208;5.158;2024-02-14T10:52:57;101343.16;;;11.13;100.00
65758;BME280;52495;52.208;5.158;2024-02-14T10:55:24;101345.72;;;11.13;100.00
65758;BME280;52495;52.208;5.158;2024-02-14T10:57:57;101344.00;;;11.16;100.00
65758;BME280;52495;52.208;5.158;2024-02-14T11:00:25;101337.91;;;11.19;100.00
65758;BME280;52495;52.208;5.158;2024-02-14T11:02:53;101338.75;;;11.21;100.00
65758;BME280;52495;52.208;5.158;2024-02-14T11:05:20;101339.59;;;11.23;100.00
65758;BME280;52495;52.208;5.158;2024-02-14T11:07:49;101338.69;;;11.26;100.00
65758;BME280;52495;52.208;5.158;2024-02-14T11:10:19;101330.09;;;11.25;100.00
65758;BME280;52495;52.208;5.158;2024-02-14T11:12:48;101329.22;;;11.26;100.00
65758;BME280;52495;52.208;5.158;2024-02-14T11:15:17;101329.19;;;11.28;100.00
65758;BME280;52495;52.208;5.158;2024-02-14T11:17:47;101332.63;;;11.30;100.00
65758;BME280;52495;52.208;5.158;2024-02-14T11:20:16;101324.84;;;11.31;100.00
65758;BME280;52495;52.208;5.158;2024-02-14T11:22:57;101317.09;;;11.31;100.00
65758;BME280;52495;52.208;5.158;2024-02-14T11:25:30;101315.34;;;11.35;100.00
65758;BME280;52495;52.208;5.158;2024-02-14T11:27:58;101314.44;;;11.36;100.00
65758;BME280;52495;52.208;5.158;2024-02-14T11:30:31;101322.19;;;11.36;100.00
65758;BME280;52495;52.208;5.158;2024-02-14T11:33:25;101314.44;;;11.37;100.00
65758;BME280;52495;52.208;5.158;2024-02-14T11:35:53;101319.56;;;11.39;100.00
65758;BME280;52495;52.208;5.158;2024-02-14T11:38:21;101314.44;;;11.37;100.00
65758;BME280;52495;52.208;5.158;2024-02-14T11:40:49;101316.94;;;11.42;100.00
65758;BME280;52495;52.208;5.158;2024-02-14T11:43:18;101312.66;;;11.41;100.00
65758;BME280;52495;52.208;5.158;2024-02-14T11:45:46;101304.81;;;11.46;100.00
65758;BME280;52495;52.208;5.158;2024-02-14T11:48:16;101313.44;;;11.46;100.00
65758;BME280;52495;52.208;5.158;2024-02-14T11:50:45;101307.38;;;11.49;100.00
65758;BME280;52495;52.208;5.158;2024-02-14T11:53:12;101310.00;;;11.47;100.00
65758;BME280;52495;52.208;5.158;2024-02-14T11:55:42;101310.88;;;11.46;100.00
65758;BME280;52495;52.208;5.158;2024-02-14T11:58:09;101307.41;;;11.47;100.00
65758;BME280;52495;52.208;5.158;2024-02-14T12:00:37;101313.41;;;11.49;100.00
65758;BME280;52495;52.208;5.158;2024-02-14T12:03:06;101307.38;;;11.50;100.00
65758;BME280;52495;52.208;5.158;2024-02-14T12:05:34;101307.38;;;11.50;100.00
65758;BME280;52495;52.208;5.158;2024-02-14T12:08:04;101304.75;;;11.52;100.00
65758;BME280;52495;52.208;5.158;2024-02-14T12:10:32;101297.88;;;11.51;100.00
65758;BME280;52495;52.208;5.158;2024-02-14T12:13:06;101301.31;;;11.51;100.00
65758;BME280;52495;52.208;5.158;2024-02-14T12:15:37;101302.97;;;11.56;100.00
65758;BME280;52495;52.208;5.158;2024-02-14T12:18:04;101305.53;;;11.59;100.00
65758;BME280;52495;52.208;5.158;2024-02-14T12:20:31;101308.94;;;11.61;100.00
65758;BME280;52495;52.208;5.158;2024-02-14T12:22:58;101308.94;;;11.61;100.00
65758;BME280;52495;52.208;5.158;2024-02-14T12:25:27;101308.03;;;11.63;100.00
65758;BME280;52495;52.208;5.158;2024-02-14T12:27:56;101301.97;;;11.66;100.00
65758;BME280;52495;52.208;5.158;2024-02-14T12:30:23;101289.06;;;11.66;100.00
65758;BME280;52495;52.208;5.158;2024-02-14T12:32:59;101295.06;;;11.66;100.00
65758;BME280;52495;52.208;5.158;2024-02-14T12:35:34;101295.06;;;11.66;100.00
65758;BME280;52495;52.208;5.158;2024-02-14T12:38:05;101300.25;;;11.66;100.00
65758;BME280;52495;52.208;5.158;2024-02-14T12:40:36;101297.63;;;11.69;100.00
65758;BME280;52495;52.208;5.158;2024-02-14T12:43:03;101307.13;;;11.67;100.00
65758;BME280;52495;52.208;5.158;2024-02-14T12:45:31;101297.69;;;11.65;100.00
65758;BME280;52495;52.208;5.158;2024-02-14T12:47:58;101296.81;;;11.64;100.00